sensor_id;sensor_type;location;lat;lon;timestamp;pressure;altitude;pressure_sealevel;temperature;humidity
37020;BME280;22932;52.442;16.896;2022-10-16T00:01:49;100308.67;;;13.01;88.63
37020;BME280;22932;52.442;16.896;2022-10-16T00:04:18;100301.10;;;13.00;88.79
37020;BME280;22932;52.442;16.896;2022-10-16T00:06:47;100293.73;;;12.97;88.76
37020;BME280;22932;52.442;16.896;2022-10-16T00:09:16;100287.70;;;12.95;88.83
37020;BME280;22932;52.442;16.896;2022-10-16T00:11:45;100282.81;;;12.93;88.74
37020;BME280;22932;52.442;16.896;2022-10-16T00:14:16;100283.54;;;12.91;89.04
37020;BME280;22932;52.442;16.896;2022-10-16T00:16:45;100282.60;;;12.90;89.22
37020;BME280;22932;52.442;16.896;2022-10-16T00:19:14;100284.46;;;12.89;88.91
37020;BME280;22932;52.442;16.896;2022-10-16T00:21:43;100285.23;;;12.89;89.11
37020;BME280;22932;52.442;16.896;2022-10-16T00:24:13;100283.11;;;12.88;89.14
37020;BME280;22932;52.442;16.896;2022-10-16T00:26:42;100292.13;;;12.88;89.10
37020;BME280;22932;52.442;16.896;2022-10-16T00:29:11;100294.49;;;12.88;89.25
37020;BME280;22932;52.442;16.896;2022-10-16T00:31:40;100297.39;;;12.88;89.34
37020;BME280;22932;52.442;16.896;2022-10-16T00:34:10;100301.34;;;12.88;89.56
37020;BME280;22932;52.442;16.896;2022-10-16T00:36:39;100302.23;;;12.89;89.27
37020;BME280;22932;52.442;16.896;2022-10-16T00:39:08;100304.38;;;12.89;89.44
37020;BME280;22932;52.442;16.896;2022-10-16T00:41:37;100307.59;;;12.89;89.66
37020;BME280;22932;52.442;16.896;2022-10-16T00:47:09;100304.08;;;12.90;89.49
37020;BME280;22932;52.442;16.896;2022-10-16T00:49:40;100303.44;;;12.91;89.51
37020;BME280;22932;52.442;16.896;2022-10-16T00:52:11;100297.61;;;12.92;89.65
37020;BME280;22932;52.442;16.896;2022-10-16T00:54:41;100296.44;;;12.92;89.56
37020;BME280;22932;52.442;16.896;2022-10-16T00:57:10;100296.37;;;12.93;89.57
37020;BME280;22932;52.442;16.896;2022-10-16T00:59:41;100296.47;;;12.94;89.58
37020;BME280;22932;52.442;16.896;2022-10-16T01:02:13;100304.82;;;12.95;89.58
37020;BME280;22932;52.442;16.896;2022-10-16T01:04:46;100306.93;;;12.96;89.67
37020;BME280;22932;52.442;16.896;2022-10-16T01:07:29;100306.19;;;12.97;89.83
37020;BME280;22932;52.442;16.896;2022-10-16T01:10:10;100302.45;;;12.99;89.67
37020;BME280;22932;52.442;16.896;2022-10-16T01:12:47;100304.45;;;13.00;89.90
37020;BME280;22932;52.442;16.896;2022-10-16T01:15:25;100308.50;;;13.01;89.69
37020;BME280;22932;52.442;16.896;2022-10-16T01:18:00;100313.05;;;13.03;89.97
37020;BME280;22932;52.442;16.896;2022-10-16T01:20:31;100316.11;;;13.05;89.72
37020;BME280;22932;52.442;16.896;2022-10-16T01:23:14;100309.48;;;13.06;89.93
37020;BME280;22932;52.442;16.896;2022-10-16T01:26:10;100306.55;;;13.08;89.89
37020;BME280;22932;52.442;16.896;2022-10-16T01:28:45;100305.54;;;13.09;89.92
37020;BME280;22932;52.442;16.896;2022-10-16T01:31:20;100308.03;;;13.11;89.79
37020;BME280;22932;52.442;16.896;2022-10-16T01:33:58;100306.23;;;13.13;90.01
37020;BME280;22932;52.442;16.896;2022-10-16T01:36:34;100305.58;;;13.14;89.78
37020;BME280;22932;52.442;16.896;2022-10-16T01:39:08;100309.37;;;13.16;89.77
37020;BME280;22932;52.442;16.896;2022-10-16T01:41:43;100308.20;;;13.18;89.84
37020;BME280;22932;52.442;16.896;2022-10-16T01:44:17;100315.96;;;13.20;89.82
37020;BME280;22932;52.442;16.896;2022-10-16T01:46:50;100314.65;;;13.22;89.95
37020;BME280;22932;52.442;16.896;2022-10-16T01:49:21;100321.34;;;13.24;89.88
37020;BME280;22932;52.442;16.896;2022-10-16T01:51:55;100320.64;;;13.26;90.02
37020;BME280;22932;52.442;16.896;2022-10-16T01:54:27;100324.95;;;13.28;89.78
37020;BME280;22932;52.442;16.896;2022-10-16T01:56:58;100327.02;;;13.31;89.99
37020;BME280;22932;52.442;16.896;2022-10-16T01:59:27;100327.73;;;13.33;89.83
37020;BME280;22932;52.442;16.896;2022-10-16T02:02:01;100322.71;;;13.34;89.83
37020;BME280;22932;52.442;16.896;2022-10-16T02:04:34;100317.06;;;13.36;89.85
37020;BME280;22932;52.442;16.896;2022-10-16T02:07:06;100317.80;;;13.38;89.95
37020;BME280;22932;52.442;16.896;2022-10-16T02:09:36;100317.66;;;13.39;89.78
37020;BME280;22932;52.442;16.896;2022-10-16T02:12:10;100316.44;;;13.40;89.83
37020;BME280;22932;52.442;16.896;2022-10-16T02:14:43;100321.88;;;13.42;89.68
37020;BME280;22932;52.442;16.896;2022-10-16T02:17:16;100327.38;;;13.43;89.81
37020;BME280;22932;52.442;16.896;2022-10-16T02:19:48;100328.63;;;13.45;89.96
37020;BME280;22932;52.442;16.896;2022-10-16T02:22:21;100334.10;;;13.48;89.84
37020;BME280;22932;52.442;16.896;2022-10-16T02:24:57;100334.08;;;13.50;90.02
37020;BME280;22932;52.442;16.896;2022-10-16T02:27:30;100332.21;;;13.52;89.62
37020;BME280;22932;52.442;16.896;2022-10-16T02:30:05;100329.05;;;13.53;89.63
37020;BME280;22932;52.442;16.896;2022-10-16T02:32:39;100325.69;;;13.54;89.68
37020;BME280;22932;52.442;16.896;2022-10-16T02:35:11;100324.98;;;13.56;89.52
37020;BME280;22932;52.442;16.896;2022-10-16T02:37:41;100324.38;;;13.56;89.49
37020;BME280;22932;52.442;16.896;2022-10-16T02:40:12;100323.89;;;13.56;89.53
37020;BME280;22932;52.442;16.896;2022-10-16T02:42:40;100324.79;;;13.56;89.51
37020;BME280;22932;52.442;16.896;2022-10-16T02:45:11;100323.01;;;13.55;89.26
37020;BME280;22932;52.442;16.896;2022-10-16T02:47:40;100326.67;;;13.55;89.47
37020;BME280;22932;52.442;16.896;2022-10-16T02:50:10;100326.83;;;13.55;89.34
37020;BME280;22932;52.442;16.896;2022-10-16T02:52:39;100329.15;;;13.55;89.47
37020;BME280;22932;52.442;16.896;2022-10-16T02:55:09;100327.30;;;13.56;89.55
37020;BME280;22932;52.442;16.896;2022-10-16T02:57:40;100329.41;;;13.57;89.46
37020;BME280;22932;52.442;16.896;2022-10-16T03:00:13;100333.71;;;13.57;89.31
37020;BME280;22932;52.442;16.896;2022-10-16T03:02:44;100332.25;;;13.57;89.37
37020;BME280;22932;52.442;16.896;2022-10-16T03:05:14;100332.05;;;13.57;89.54
37020;BME280;22932;52.442;16.896;2022-10-16T03:07:44;100333.88;;;13.58;89.70
37020;BME280;22932;52.442;16.896;2022-10-16T03:10:13;100334.05;;;13.59;89.63
37020;BME280;22932;52.442;16.896;2022-10-16T03:12:43;100334.71;;;13.59;89.55
37020;BME280;22932;52.442;16.896;2022-10-16T03:15:12;100335.87;;;13.60;89.53
37020;BME280;22932;52.442;16.896;2022-10-16T03:17:41;100334.14;;;13.61;89.59
37020;BME280;22932;52.442;16.896;2022-10-16T03:20:11;100334.18;;;13.62;89.83
37020;BME280;22932;52.442;16.896;2022-10-16T03:22:40;100332.65;;;13.63;89.96
37020;BME280;22932;52.442;16.896;2022-10-16T03:25:10;100334.05;;;13.64;89.61
37020;BME280;22932;52.442;16.896;2022-10-16T03:27:39;100334.70;;;13.64;89.79
37020;BME280;22932;52.442;16.896;2022-10-16T03:30:10;100334.68;;;13.65;89.84
37020;BME280;22932;52.442;16.896;2022-10-16T03:32:40;100342.75;;;13.65;89.75
37020;BME280;22932;52.442;16.896;2022-10-16T03:35:09;100345.93;;;13.66;89.83
37020;BME280;22932;52.442;16.896;2022-10-16T03:37:39;100347.73;;;13.66;89.83
37020;BME280;22932;52.442;16.896;2022-10-16T03:40:09;100348.24;;;13.66;89.91
37020;BME280;22932;52.442;16.896;2022-10-16T03:42:37;100347.49;;;13.66;89.91
37020;BME280;22932;52.442;16.896;2022-10-16T03:45:08;100348.27;;;13.66;89.77
37020;BME280;22932;52.442;16.896;2022-10-16T03:47:37;100350.24;;;13.66;89.93
37020;BME280;22932;52.442;16.896;2022-10-16T03:50:08;100351.30;;;13.67;90.00
37020;BME280;22932;52.442;16.896;2022-10-16T03:52:37;100358.96;;;13.66;89.84
37020;BME280;22932;52.442;16.896;2022-10-16T03:55:08;100361.80;;;13.66;89.95
37020;BME280;22932;52.442;16.896;2022-10-16T03:57:37;100365.78;;;13.66;89.89
37020;BME280;22932;52.442;16.896;2022-10-16T04:00:09;100366.29;;;13.67;90.00
37020;BME280;22932;52.442;16.896;2022-10-16T04:02:38;100371.27;;;13.68;90.18
37020;BME280;22932;52.442;16.896;2022-10-16T04:05:09;100370.17;;;13.68;89.89
37020;BME280;22932;52.442;16.896;2022-10-16T04:07:38;100373.77;;;13.68;90.09
37020;BME280;22932;52.442;16.896;2022-10-16T04:10:08;100376.63;;;13.68;90.28
37020;BME280;22932;52.442;16.896;2022-10-16T04:12:38;100374.59;;;13.69;90.07
37020;BME280;22932;52.442;16.896;2022-10-16T04:15:08;100376.73;;;13.69;90.21
37020;BME280;22932;52.442;16.896;2022-10-16T04:17:37;100371.94;;;13.70;90.32
37020;BME280;22932;52.442;16.896;2022-10-16T04:20:08;100378.05;;;13.70;90.27
37020;BME280;22932;52.442;16.896;2022-10-16T04:22:37;100374.96;;;13.70;90.52
37020;BME280;22932;52.442;16.896;2022-10-16T04:25:07;100383.16;;;13.72;90.40
37020;BME280;22932;52.442;16.896;2022-10-16T04:27:37;100381.80;;;13.72;90.59
37020;BME280;22932;52.442;16.896;2022-10-16T04:30:08;100386.39;;;13.73;90.79
37020;BME280;22932;52.442;16.896;2022-10-16T04:32:37;100393.29;;;13.75;90.81
37020;BME280;22932;52.442;16.896;2022-10-16T04:35:08;100397.16;;;13.76;91.12
37020;BME280;22932;52.442;16.896;2022-10-16T04:37:36;100398.70;;;13.77;90.79
37020;BME280;22932;52.442;16.896;2022-10-16T04:40:06;100400.67;;;13.78;90.80
37020;BME280;22932;52.442;16.896;2022-10-16T04:42:36;100404.40;;;13.78;90.83
37020;BME280;22932;52.442;16.896;2022-10-16T04:45:07;100405.08;;;13.78;90.91
37020;BME280;22932;52.442;16.896;2022-10-16T04:47:36;100408.98;;;13.79;90.97
37020;BME280;22932;52.442;16.896;2022-10-16T04:50:07;100406.20;;;13.80;91.03
37020;BME280;22932;52.442;16.896;2022-10-16T04:52:36;100409.98;;;13.80;91.29
37020;BME280;22932;52.442;16.896;2022-10-16T04:55:07;100413.17;;;13.81;91.08
37020;BME280;22932;52.442;16.896;2022-10-16T04:57:36;100409.36;;;13.81;91.32
37020;BME280;22932;52.442;16.896;2022-10-16T05:00:07;100409.11;;;13.82;91.34
37020;BME280;22932;52.442;16.896;2022-10-16T05:02:36;100413.04;;;13.82;91.60
37020;BME280;22932;52.442;16.896;2022-10-16T05:05:07;100414.14;;;13.84;91.43
37020;BME280;22932;52.442;16.896;2022-10-16T05:07:36;100409.33;;;13.85;91.54
37020;BME280;22932;52.442;16.896;2022-10-16T05:10:06;100406.54;;;13.85;91.71
37020;BME280;22932;52.442;16.896;2022-10-16T05:12:36;100401.77;;;13.86;91.70
37020;BME280;22932;52.442;16.896;2022-10-16T05:15:07;100397.23;;;13.86;91.68
37020;BME280;22932;52.442;16.896;2022-10-16T05:17:37;100405.34;;;13.86;91.48
37020;BME280;22932;52.442;16.896;2022-10-16T05:20:07;100410.86;;;13.87;91.63
37020;BME280;22932;52.442;16.896;2022-10-16T05:22:36;100418.64;;;13.87;91.66
37020;BME280;22932;52.442;16.896;2022-10-16T05:25:07;100424.34;;;13.88;91.70
37020;BME280;22932;52.442;16.896;2022-10-16T05:27:36;100429.20;;;13.88;91.78
37020;BME280;22932;52.442;16.896;2022-10-16T05:30:07;100428.27;;;13.88;91.89
37020;BME280;22932;52.442;16.896;2022-10-16T05:32:36;100421.20;;;13.89;91.77
37020;BME280;22932;52.442;16.896;2022-10-16T05:35:06;100421.70;;;13.89;92.10
37020;BME280;22932;52.442;16.896;2022-10-16T05:37:36;100421.61;;;13.90;92.11
37020;BME280;22932;52.442;16.896;2022-10-16T05:40:07;100422.02;;;13.91;92.02
37020;BME280;22932;52.442;16.896;2022-10-16T05:42:36;100420.23;;;13.93;92.25
37020;BME280;22932;52.442;16.896;2022-10-16T05:45:08;100425.27;;;13.95;92.13
37020;BME280;22932;52.442;16.896;2022-10-16T05:47:38;100428.50;;;13.97;92.05
37020;BME280;22932;52.442;16.896;2022-10-16T05:50:08;100425.66;;;13.98;92.20
37020;BME280;22932;52.442;16.896;2022-10-16T05:52:38;100423.39;;;13.99;92.24
37020;BME280;22932;52.442;16.896;2022-10-16T05:55:08;100428.64;;;14.01;92.16
37020;BME280;22932;52.442;16.896;2022-10-16T05:57:37;100427.58;;;14.02;92.36
37020;BME280;22932;52.442;16.896;2022-10-16T06:00:09;100429.56;;;14.04;92.39
37020;BME280;22932;52.442;16.896;2022-10-16T06:02:38;100439.08;;;14.06;92.19
37020;BME280;22932;52.442;16.896;2022-10-16T06:05:08;100439.98;;;14.08;92.36
37020;BME280;22932;52.442;16.896;2022-10-16T06:07:37;100436.82;;;14.10;92.48
37020;BME280;22932;52.442;16.896;2022-10-16T06:10:08;100437.16;;;14.12;92.21
37020;BME280;22932;52.442;16.896;2022-10-16T06:12:37;100434.25;;;14.14;92.12
37020;BME280;22932;52.442;16.896;2022-10-16T06:15:08;100435.21;;;14.15;92.16
37020;BME280;22932;52.442;16.896;2022-10-16T06:17:37;100438.80;;;14.15;92.21
37020;BME280;22932;52.442;16.896;2022-10-16T06:20:07;100446.73;;;14.16;91.97
37020;BME280;22932;52.442;16.896;2022-10-16T06:22:37;100446.14;;;14.16;92.02
37020;BME280;22932;52.442;16.896;2022-10-16T06:25:07;100447.31;;;14.17;91.98
37020;BME280;22932;52.442;16.896;2022-10-16T09:34:28;100579.59;;;18.31;83.50
37020;BME280;22932;52.442;16.896;2022-10-16T09:37:00;100581.80;;;18.58;83.27
37020;BME280;22932;52.442;16.896;2022-10-16T09:39:41;100583.91;;;18.81;82.56
37020;BME280;22932;52.442;16.896;2022-10-16T09:42:15;100583.96;;;18.97;81.10
37020;BME280;22932;52.442;16.896;2022-10-16T09:44:49;100578.73;;;19.09;80.58
37020;BME280;22932;52.442;16.896;2022-10-16T09:47:22;100582.33;;;19.32;79.94
37020;BME280;22932;52.442;16.896;2022-10-16T09:49:54;100583.73;;;19.39;78.98
37020;BME280;22932;52.442;16.896;2022-10-16T09:52:24;100592.35;;;19.35;78.42
37020;BME280;22932;52.442;16.896;2022-10-16T09:54:55;100592.34;;;19.34;77.91
37020;BME280;22932;52.442;16.896;2022-10-16T09:57:25;100598.43;;;19.39;78.07
37020;BME280;22932;52.442;16.896;2022-10-16T09:59:56;100595.38;;;19.37;77.93
37020;BME280;22932;52.442;16.896;2022-10-16T10:02:31;100591.91;;;19.51;78.03
37020;BME280;22932;52.442;16.896;2022-10-16T10:05:05;100593.74;;;19.75;77.54
37020;BME280;22932;52.442;16.896;2022-10-16T10:07:46;100589.11;;;19.84;77.09
37020;BME280;22932;52.442;16.896;2022-10-16T10:10:24;100591.22;;;19.76;76.06
37020;BME280;22932;52.442;16.896;2022-10-16T10:12:55;100591.07;;;19.65;75.91
37020;BME280;22932;52.442;16.896;2022-10-16T10:15:25;100591.17;;;19.57;75.75
37020;BME280;22932;52.442;16.896;2022-10-16T10:17:57;100593.52;;;19.59;76.00
37020;BME280;22932;52.442;16.896;2022-10-16T10:20:26;100598.27;;;19.72;75.99
37020;BME280;22932;52.442;16.896;2022-10-16T10:22:56;100600.23;;;19.91;75.97
37020;BME280;22932;52.442;16.896;2022-10-16T10:25:44;100600.39;;;20.04;75.28
37020;BME280;22932;52.442;16.896;2022-10-16T10:28:41;100599.80;;;20.08;74.56
37020;BME280;22932;52.442;16.896;2022-10-16T10:31:17;100595.98;;;20.07;74.07
37020;BME280;22932;52.442;16.896;2022-10-16T10:33:54;100591.23;;;19.97;73.82
37020;BME280;22932;52.442;16.896;2022-10-16T10:36:35;100597.73;;;19.90;73.61
37020;BME280;22932;52.442;16.896;2022-10-16T10:39:08;100587.71;;;19.93;73.52
37020;BME280;22932;52.442;16.896;2022-10-16T10:42:08;100589.60;;;19.98;73.72
37020;BME280;22932;52.442;16.896;2022-10-16T10:44:54;100586.40;;;20.12;74.02
37020;BME280;22932;52.442;16.896;2022-10-16T10:47:32;100593.11;;;20.21;73.38
37020;BME280;22932;52.442;16.896;2022-10-16T10:50:12;100593.41;;;20.26;73.24
37020;BME280;22932;52.442;16.896;2022-10-16T10:52:51;100597.19;;;20.47;73.27
37020;BME280;22932;52.442;16.896;2022-10-16T10:55:25;100604.42;;;20.70;72.59
37020;BME280;22932;52.442;16.896;2022-10-16T10:58:13;100602.55;;;20.73;71.44
37020;BME280;22932;52.442;16.896;2022-10-16T11:00:51;100600.45;;;20.61;71.06
37020;BME280;22932;52.442;16.896;2022-10-16T11:03:39;100596.05;;;20.53;70.78
37020;BME280;22932;52.442;16.896;2022-10-16T11:06:13;100587.39;;;20.53;70.78
37020;BME280;22932;52.442;16.896;2022-10-16T11:08:50;100588.29;;;20.48;70.61
37020;BME280;22932;52.442;16.896;2022-10-16T11:11:25;100591.57;;;20.46;70.67
37020;BME280;22932;52.442;16.896;2022-10-16T11:13:57;100595.14;;;20.42;70.88
37020;BME280;22932;52.442;16.896;2022-10-16T11:16:31;100597.09;;;20.44;71.18
37020;BME280;22932;52.442;16.896;2022-10-16T11:19:05;100595.50;;;20.50;71.30
37020;BME280;22932;52.442;16.896;2022-10-16T11:21:44;100593.55;;;20.54;71.05
37020;BME280;22932;52.442;16.896;2022-10-16T11:24:23;100593.37;;;20.52;70.84
37020;BME280;22932;52.442;16.896;2022-10-16T11:26:55;100585.84;;;20.47;70.67
37020;BME280;22932;52.442;16.896;2022-10-16T11:29:29;100584.97;;;20.45;70.42
37020;BME280;22932;52.442;16.896;2022-10-16T11:32:05;100580.69;;;20.47;70.68
37020;BME280;22932;52.442;16.896;2022-10-16T11:34:38;100578.14;;;20.58;70.88
37020;BME280;22932;52.442;16.896;2022-10-16T11:37:14;100582.40;;;20.73;70.88
37020;BME280;22932;52.442;16.896;2022-10-16T11:39:46;100576.13;;;20.76;70.12
37020;BME280;22932;52.442;16.896;2022-10-16T11:42:21;100586.58;;;20.71;69.90
37020;BME280;22932;52.442;16.896;2022-10-16T11:44:57;100585.71;;;20.62;69.47
37020;BME280;22932;52.442;16.896;2022-10-16T11:47:36;100585.70;;;20.54;69.54
37020;BME280;22932;52.442;16.896;2022-10-16T11:50:17;100591.66;;;20.47;69.23
37020;BME280;22932;52.442;16.896;2022-10-16T11:52:53;100595.36;;;20.40;69.28
37020;BME280;22932;52.442;16.896;2022-10-16T11:55:28;100599.44;;;20.35;68.99
37020;BME280;22932;52.442;16.896;2022-10-16T11:58:02;100599.77;;;20.30;68.92
37020;BME280;22932;52.442;16.896;2022-10-16T12:00:39;100605.21;;;20.25;68.92
37020;BME280;22932;52.442;16.896;2022-10-16T12:03:17;100611.52;;;20.21;68.99
37020;BME280;22932;52.442;16.896;2022-10-16T12:05:58;100611.90;;;20.18;69.04
37020;BME280;22932;52.442;16.896;2022-10-16T12:08:32;100607.20;;;20.16;69.16
37020;BME280;22932;52.442;16.896;2022-10-16T12:11:19;100601.47;;;20.14;69.24
37020;BME280;22932;52.442;16.896;2022-10-16T12:13:49;100599.05;;;20.13;69.31
37020;BME280;22932;52.442;16.896;2022-10-16T12:16:25;100602.45;;;20.13;69.50
37020;BME280;22932;52.442;16.896;2022-10-16T12:19:12;100603.55;;;20.15;69.40
37020;BME280;22932;52.442;16.896;2022-10-16T12:21:42;100604.55;;;20.18;69.50
37020;BME280;22932;52.442;16.896;2022-10-16T12:24:32;100599.69;;;20.19;69.69
37020;BME280;22932;52.442;16.896;2022-10-16T12:27:03;100604.04;;;20.17;69.31
37020;BME280;22932;52.442;16.896;2022-10-16T12:29:39;100604.98;;;20.12;69.05
37020;BME280;22932;52.442;16.896;2022-10-16T12:32:27;100604.55;;;20.07;69.09
37020;BME280;22932;52.442;16.896;2022-10-16T12:34:57;100611.30;;;20.03;68.80
37020;BME280;22932;52.442;16.896;2022-10-16T12:37:29;100612.38;;;19.99;68.76
37020;BME280;22932;52.442;16.896;2022-10-16T12:40:10;100618.05;;;19.95;68.85
37020;BME280;22932;52.442;16.896;2022-10-16T12:42:41;100613.92;;;19.89;68.80
37020;BME280;22932;52.442;16.896;2022-10-16T12:45:27;100614.35;;;19.86;68.73
37020;BME280;22932;52.442;16.896;2022-10-16T12:47:58;100618.27;;;19.84;68.63
37020;BME280;22932;52.442;16.896;2022-10-16T12:50:33;100614.23;;;19.84;68.71
37020;BME280;22932;52.442;16.896;2022-10-16T12:53:17;100608.11;;;19.86;68.65
37020;BME280;22932;52.442;16.896;2022-10-16T12:55:55;100606.59;;;19.94;68.74
37020;BME280;22932;52.442;16.896;2022-10-16T12:58:58;100608.81;;;20.02;68.82
37020;BME280;22932;52.442;16.896;2022-10-16T13:01:42;100616.98;;;20.10;68.46
37020;BME280;22932;52.442;16.896;2022-10-16T13:04:24;100617.17;;;20.14;68.02
37020;BME280;22932;52.442;16.896;2022-10-16T13:07:10;100626.88;;;20.18;67.53
37020;BME280;22932;52.442;16.896;2022-10-16T13:09:54;100632.27;;;20.21;67.34
37020;BME280;22932;52.442;16.896;2022-10-16T13:12:49;100633.25;;;20.18;67.20
37020;BME280;22932;52.442;16.896;2022-10-16T13:15:29;100636.84;;;20.14;66.90
37020;BME280;22932;52.442;16.896;2022-10-16T13:18:09;100638.41;;;20.09;66.67
37020;BME280;22932;52.442;16.896;2022-10-16T13:20:53;100633.04;;;20.05;66.63
37020;BME280;22932;52.442;16.896;2022-10-16T13:23:30;100637.35;;;19.99;66.69
37020;BME280;22932;52.442;16.896;2022-10-16T13:26:11;100634.31;;;19.96;66.66
37020;BME280;22932;52.442;16.896;2022-10-16T13:28:44;100635.20;;;19.96;66.72
37020;BME280;22932;52.442;16.896;2022-10-16T13:31:18;100634.84;;;19.98;66.86
37020;BME280;22932;52.442;16.896;2022-10-16T13:33:50;100649.45;;;19.99;67.03
37020;BME280;22932;52.442;16.896;2022-10-16T13:36:25;100644.36;;;20.00;67.04
37020;BME280;22932;52.442;16.896;2022-10-16T13:39:10;100649.59;;;20.01;66.90
37020;BME280;22932;52.442;16.896;2022-10-16T13:41:40;100649.02;;;20.00;67.08
37020;BME280;22932;52.442;16.896;2022-10-16T13:44:15;100654.95;;;20.00;67.13
37020;BME280;22932;52.442;16.896;2022-10-16T13:46:46;100661.55;;;20.03;67.19
37020;BME280;22932;52.442;16.896;2022-10-16T13:49:16;100662.97;;;20.06;67.32
37020;BME280;22932;52.442;16.896;2022-10-16T13:51:57;100663.57;;;20.10;67.45
37020;BME280;22932;52.442;16.896;2022-10-16T13:54:27;100675.48;;;20.13;67.18
37020;BME280;22932;52.442;16.896;2022-10-16T13:57:04;100674.69;;;20.13;67.25
37020;BME280;22932;52.442;16.896;2022-10-16T13:59:36;100675.19;;;20.13;67.16
37020;BME280;22932;52.442;16.896;2022-10-16T14:02:19;100681.95;;;20.13;67.00
37020;BME280;22932;52.442;16.896;2022-10-16T14:04:51;100687.73;;;20.13;66.78
37020;BME280;22932;52.442;16.896;2022-10-16T14:07:26;100685.13;;;20.11;66.96
37020;BME280;22932;52.442;16.896;2022-10-16T14:09:56;100694.14;;;20.10;66.86
37020;BME280;22932;52.442;16.896;2022-10-16T14:12:28;100695.17;;;20.07;66.82
37020;BME280;22932;52.442;16.896;2022-10-16T14:14:59;100694.59;;;20.03;66.77
37020;BME280;22932;52.442;16.896;2022-10-16T14:17:30;100701.02;;;19.99;66.77
37020;BME280;22932;52.442;16.896;2022-10-16T14:20:04;100703.19;;;19.95;66.54
37020;BME280;22932;52.442;16.896;2022-10-16T14:22:36;100699.84;;;19.90;66.43
37020;BME280;22932;52.442;16.896;2022-10-16T14:25:23;100701.84;;;19.84;66.33
37020;BME280;22932;52.442;16.896;2022-10-16T14:28:04;100699.38;;;19.79;66.29
37020;BME280;22932;52.442;16.896;2022-10-16T14:30:52;100697.44;;;19.75;66.32
37020;BME280;22932;52.442;16.896;2022-10-16T14:33:33;100694.77;;;19.75;66.40
37020;BME280;22932;52.442;16.896;2022-10-16T14:36:05;100700.21;;;19.74;66.36
37020;BME280;22932;52.442;16.896;2022-10-16T14:38:35;100706.84;;;19.72;66.42
37020;BME280;22932;52.442;16.896;2022-10-16T14:41:05;100714.91;;;19.70;66.38
37020;BME280;22932;52.442;16.896;2022-10-16T14:43:34;100717.34;;;19.68;66.37
37020;BME280;22932;52.442;16.896;2022-10-16T14:46:09;100718.67;;;19.66;66.47
37020;BME280;22932;52.442;16.896;2022-10-16T14:48:43;100721.05;;;19.65;66.52
37020;BME280;22932;52.442;16.896;2022-10-16T14:51:15;100725.09;;;19.64;66.57
37020;BME280;22932;52.442;16.896;2022-10-16T14:53:45;100726.02;;;19.63;66.69
37020;BME280;22932;52.442;16.896;2022-10-16T14:56:19;100725.88;;;19.62;66.78
37020;BME280;22932;52.442;16.896;2022-10-16T14:58:49;100723.13;;;19.61;66.78
37020;BME280;22932;52.442;16.896;2022-10-16T15:01:19;100727.67;;;19.60;66.67
37020;BME280;22932;52.442;16.896;2022-10-16T15:03:49;100727.95;;;19.59;66.72
37020;BME280;22932;52.442;16.896;2022-10-16T15:06:23;100727.17;;;19.58;66.66
37020;BME280;22932;52.442;16.896;2022-10-16T15:08:52;100731.91;;;19.56;66.69
37020;BME280;22932;52.442;16.896;2022-10-16T15:11:21;100731.94;;;19.55;66.62
37020;BME280;22932;52.442;16.896;2022-10-16T15:13:50;100738.58;;;19.53;66.53
37020;BME280;22932;52.442;16.896;2022-10-16T15:16:19;100734.36;;;19.50;66.53
37020;BME280;22932;52.442;16.896;2022-10-16T15:18:49;100739.45;;;19.49;66.56
37020;BME280;22932;52.442;16.896;2022-10-16T15:21:24;100740.06;;;19.47;66.58
37020;BME280;22932;52.442;16.896;2022-10-16T15:23:54;100741.55;;;19.45;66.50
37020;BME280;22932;52.442;16.896;2022-10-16T15:26:25;100742.33;;;19.43;66.53
37020;BME280;22932;52.442;16.896;2022-10-16T15:28:55;100741.60;;;19.40;66.36
37020;BME280;22932;52.442;16.896;2022-10-16T15:31:24;100740.79;;;19.36;66.43
37020;BME280;22932;52.442;16.896;2022-10-16T15:33:57;100745.73;;;19.33;66.40
37020;BME280;22932;52.442;16.896;2022-10-16T15:36:34;100744.71;;;19.28;66.25
37020;BME280;22932;52.442;16.896;2022-10-16T15:39:05;100746.71;;;19.22;66.48
37020;BME280;22932;52.442;16.896;2022-10-16T15:41:35;100746.46;;;19.17;66.55
37020;BME280;22932;52.442;16.896;2022-10-16T15:44:04;100749.89;;;19.13;66.63
37020;BME280;22932;52.442;16.896;2022-10-16T15:46:34;100752.28;;;19.08;66.66
37020;BME280;22932;52.442;16.896;2022-10-16T15:49:05;100752.48;;;19.04;66.68
37020;BME280;22932;52.442;16.896;2022-10-16T15:51:34;100756.59;;;19.00;66.76
37020;BME280;22932;52.442;16.896;2022-10-16T15:54:06;100761.24;;;18.96;66.79
37020;BME280;22932;52.442;16.896;2022-10-16T15:56:36;100768.42;;;18.91;66.93
37020;BME280;22932;52.442;16.896;2022-10-16T15:59:05;100772.45;;;18.85;67.05
37020;BME280;22932;52.442;16.896;2022-10-16T16:01:35;100777.94;;;18.81;67.08
37020;BME280;22932;52.442;16.896;2022-10-16T16:04:05;100780.34;;;18.75;67.18
37020;BME280;22932;52.442;16.896;2022-10-16T16:06:34;100782.50;;;18.71;67.27
37020;BME280;22932;52.442;16.896;2022-10-16T16:09:05;100779.83;;;18.66;67.34
37020;BME280;22932;52.442;16.896;2022-10-16T16:11:34;100791.09;;;18.62;67.40
37020;BME280;22932;52.442;16.896;2022-10-16T16:14:07;100795.02;;;18.56;67.41
37020;BME280;22932;52.442;16.896;2022-10-16T16:16:36;100798.73;;;18.51;67.63
37020;BME280;22932;52.442;16.896;2022-10-16T16:19:06;100803.60;;;18.46;67.73
37020;BME280;22932;52.442;16.896;2022-10-16T16:21:35;100811.88;;;18.43;67.71